Tiempo atmosférico en la estación meteorológica de Cabo de Gata, Almería (42 m.)



Fecha
DESCASC
Temp. máxima en grados centígrados (hora)
DESCASC
Temp. mínima en grados centígrados (hora)
DESCASC
Temp. media en grados centígrados
DESCASC
Racha de viento máxima en m/sg (hora)
DESCASC
Velocidad máxima media en intervalos de 10 minutos(hora)
DESCASC
Precipitaciones diarias en mm
DESCASC
Precipitaciones de 00:00 a 06:00 en mm
DESCASC
Precipitaciones de 06:00 a 12:00 en mm
DESCASC
Precipitaciones de 12:00 a 18:00 en mm
DESCASC
Precipitaciones de 18:00 a 24:00 en mm
DESCASC
24-09-2020 26.8 (14:10) 22.2 (07:20) 24.5 9.72 (02:10) 6.39 (02:10) -- -- -- -- --
23-09-2020 25.5 (15:30) 22.3 (00:00) 23.9 11.94 (18:40) 7.5 (22:00) -- -- -- -- --
22-09-2020 26.4 (14:20) 20.6 (00:00) 23.5 7.78 (23:20) 5.56 (23:20) -- -- -- -- --
21-09-2020 27.1 (13:40) 21.5 (00:00) 24.3 6.39 (09:00) 4.72 (09:00) -- -- -- -- --
20-09-2020 26.7 (13:50) 21.7 (00:00) 24.2 8.89 (02:00) 6.11 (19:30) -- -- -- -- --
19-09-2020 25.8 (12:40) 22.5 (00:00) 24.1 13.89 (18:40) 8.89 (18:30) -- -- -- -- --
18-09-2020 26.1 (00:00) 21.4 (00:00) 23.8 20.56 (04:50) 14.72 (02:20) -- -- -- -- --
17-09-2020 26.9 (19:00) 23.8 (00:00) 25.3 13.61 (15:10) 11.11 (14:30) -- -- -- -- --
16-09-2020 25.7 (10:30) 22.7 (00:00) 24.2 14.44 (16:40) 10.28 (15:30) -- -- -- -- --
15-09-2020 28.2 (11:00) 24 (00:00) 26.1 15.28 (12:40) 10.83 (12:30) -- -- -- -- --
14-09-2020 28.2 (16:10) 24.8 (00:00) 26.5 19.72 (12:50) 13.06 (13:10) -- -- -- -- --
13-09-2020 28.8 (13:50) 25.9 (00:00) 27.3 23.89 (17:20) 14.17 (17:20) -- -- -- -- --
12-09-2020 29.7 (15:20) 25.7 (00:00) 27.7 18.33 (18:30) 11.94 (19:30) -- -- -- -- --
11-09-2020 27.1 (22:10) 22.7 (00:00) 24.9 15.83 (16:40) 10 (17:10) -- -- -- -- --
10-09-2020 27.9 (12:30) 21.5 (00:00) 24.7 7.5 (20:40) 5.56 (20:40) -- -- -- -- --
09-09-2020 24.8 (10:40) 22.1 (00:00) 23.4 13.89 (12:40) 10.28 (13:50) -- -- -- -- --
08-09-2020 25.9 (13:20) 23.2 (00:00) 24.6 18.61 (15:10) 11.39 (14:50) -- -- -- -- --
07-09-2020 27.9 (14:00) 22.3 (07:40) 25.1 16.39 (23:00) 9.72 (23:30) -- -- -- -- --
06-09-2020 26.1 (10:20) 23.2 (00:00) 24.7 15 (13:30) 11.67 (15:40) -- -- -- -- --
05-09-2020 26.6 (12:50) 22.9 (00:00) 24.8 14.72 (14:00) 11.94 (14:40) -- -- -- -- --
04-09-2020 27.7 (14:40) 23.5 (00:00) 25.6 21.11 (17:20) 15.28 (17:40) -- -- -- -- --
03-09-2020 26.7 (14:00) 23.4 (00:00) 25.1 18.06 (13:10) 11.39 (13:10) -- -- -- -- --
02-09-2020 26.2 (12:30) 21.9 (00:00) 24.1 12.22 (13:50) 9.72 (15:20) -- -- -- -- --
01-09-2020 25.9 (10:40) 22.4 (00:00) 24.1 12.5 (11:40) 9.72 (11:40) -- -- -- -- --
31-08-2020 26.4 (13:10) 22.6 (00:00) 24.5 17.5 (14:10) 12.5 (14:40) -- -- -- -- --
30-08-2020 26.6 (11:20) 22.7 (00:00) 24.7 15.83 (14:10) 10.83 (14:10) -- -- -- -- --
29-08-2020 25.8 (13:40) 22.2 (00:00) 24 21.11 (15:10) 15.56 (15:10) -- -- -- -- --
28-08-2020 29 (13:40) 24.6 (00:00) 26.8 12.5 (16:40) 7.5 (16:40) -- -- -- -- --

Gráficas

Temp. máximas Temp. mínimas Temp. medias Precipitaciones Rachas de viento máximas Velocidades máximas media en intervalos de 10 minutos

Datos horarios

Fecha y hora oficial Temperatura (ºC) Velocidad del viento (km/h) Dirección del viento Racha (km/h) Dirección de racha Precipitación (mm) Presión (hPa) Tendencia (hPa) Humedad (%)
2020-09-26 23:00:00 21.3 12 Sudoeste 25 Sudoeste -- -- -- 72
2020-09-26 22:00:00 21.3 14 Oeste 26 Sudoeste -- -- -- 69
2020-09-26 21:00:00 21.5 14 Oeste 26 Oeste -- -- -- 68
2020-09-26 20:00:00 22.1 6 Oeste 19 Oeste -- -- -- 65
2020-09-26 19:00:00 22.6 7 Oeste 19 Sudoeste -- -- -- 56
2020-09-26 18:00:00 23 6 Sudoeste 20 Sudoeste -- -- -- 59
2020-09-26 17:00:00 23.8 4 Sur 11 Sur -- -- -- 53
2020-09-26 16:00:00 24.6 5 Sudeste 17 Este -- -- -- 47
2020-09-26 15:00:00 23.6 13 Este 28 Este -- -- -- 49
2020-09-26 14:00:00 23 23 Este 31 Este -- -- -- 48
2020-09-26 13:00:00 22.9 24 Este 42 Este -- -- -- 48
2020-09-26 12:00:00 22.5 32 Este 44 Este -- -- -- 48
2020-09-26 11:00:00 23.2 23 Este 45 Este -- -- -- 47
2020-09-26 10:00:00 22.5 30 Nordeste 42 Nordeste -- -- -- 45
2020-09-26 09:00:00 21.9 23 Nordeste 43 Nordeste -- -- -- 51
2020-09-26 08:00:00 21.4 33 Nordeste 46 Nordeste -- -- -- 50
2020-09-26 07:00:00 21.6 36 Nordeste 52 Nordeste -- -- -- 51
2020-09-26 06:00:00 21.8 31 Nordeste 55 Nordeste -- -- -- 53
2020-09-26 05:00:00 21.9 28 Nordeste 44 Nordeste -- -- -- 55
2020-09-26 04:00:00 21.9 27 Nordeste 48 Este -- -- -- 63
2020-09-26 03:00:00 22.5 19 Este 37 Nordeste -- -- -- 76
2020-09-26 02:00:00 22.7 26 Este 60 Este -- -- -- 77
2020-09-26 01:00:00 22.7 34 Nordeste 62 Este -- -- -- 75
2020-09-26 00:00:00 23.4 44 Nordeste 62 Nordeste -- -- -- 72
2020-09-25 23:00:00 23.9 40 Nordeste 59 Nordeste -- -- -- 68
2020-09-25 22:00:00 25 25 Nordeste 45 Nordeste -- -- -- 57
2020-09-25 21:00:00 24 3 Sudeste 48 Oeste -- -- -- 52
2020-09-25 20:00:00 24.3 26 Noroeste 58 Oeste -- -- -- 51
2020-09-25 19:00:00 24.2 17 Noroeste 49 Noroeste -- -- -- 58
2020-09-25 18:00:00 24.5 18 Oeste 34 Sudoeste -- -- -- 63
2020-09-25 17:00:00 25.1 19 Oeste 33 Oeste -- -- -- 62
2020-09-25 16:00:00 26.3 16 Sudoeste 31 Sudoeste -- -- -- 56
2020-09-25 15:00:00 26.3 11 Sur 33 Oeste -- -- -- 57
2020-09-25 14:00:00 28.2 12 Oeste 23 Sudoeste -- -- -- 52
2020-09-25 13:00:00 27.6 11 Oeste 37 Noroeste -- -- -- 58
2020-09-25 12:00:00 27.1 9 Noroeste 24 Oeste -- -- -- 57
2020-09-25 11:00:00 26.4 8 Oeste 28 Noroeste -- -- -- 64
2020-09-25 10:00:00 24.9 18 Noroeste 35 Noroeste -- -- -- 64
2020-09-25 09:00:00 24.8 19 Oeste 43 Noroeste -- -- -- 63
2020-09-25 08:00:00 24.5 40 Oeste 50 Sudoeste -- -- -- 65
2020-09-25 07:00:00 24.8 26 Oeste 55 Oeste -- -- -- 62
2020-09-25 06:00:00 24.8 35 Oeste 51 Noroeste -- -- -- 62
2020-09-25 05:00:00 24 17 Oeste 36 Noroeste -- -- -- 70
2020-09-25 04:00:00 23.6 9 Oeste 15 Oeste -- -- -- 76
2020-09-25 03:00:00 24.2 5 Sudoeste 31 Noroeste -- -- -- 73
2020-09-25 02:00:00 24.5 21 Oeste 41 Oeste -- -- -- 70
2020-09-25 01:00:00 25.1 13 Oeste 42 Noroeste -- -- -- 66
2020-09-25 00:00:00 24.8 8 Oeste 14 Oeste -- -- -- 69
2020-09-24 23:00:00 24.5 3 Sudeste 8 Sudeste -- -- -- 72
2020-09-24 22:00:00 25 3 Sur 12 Oeste -- -- -- 69
2020-09-24 21:00:00 25.4 8 Oeste 24 Noroeste -- -- -- 65
2020-09-24 20:00:00 25.2 13 Oeste 25 Sudoeste -- -- -- 67
2020-09-24 19:00:00 25.3 10 Oeste 27 Oeste -- -- -- 68
2020-09-24 18:00:00 24.9 12 Noroeste 22 Noroeste -- -- -- 74
2020-09-24 17:00:00 25.7 9 Oeste 18 Noroeste -- -- -- 74
2020-09-24 16:00:00 26.8 6 Oeste 22 Noroeste -- -- -- 74
2020-09-24 15:00:00 26.6 9 Oeste 17 Noroeste -- -- -- 72
2020-09-24 14:00:00 26.5 9 Oeste 15 Oeste -- -- -- 75
2020-09-24 13:00:00 25.8 4 Oeste 6 Oeste -- -- -- 78
2020-09-24 12:00:00 24.5 3 Sudoeste 12 Este -- -- -- 82
2020-09-24 11:00:00 23.9 3 Sur 13 Oeste -- -- -- 82
2020-09-24 10:00:00 23.3 7 Oeste 12 Sudoeste -- -- -- 83
2020-09-24 09:00:00 22.8 2 Sur 6 Norte -- -- -- 82
2020-09-24 08:00:00 22.7 3 Oeste 10 Noroeste -- -- -- 80
2020-09-24 07:00:00 22.6 4 Oeste 10 Oeste -- -- -- 79
2020-09-24 06:00:00 22.6 6 Noroeste 12 Sudoeste -- -- -- 78
2020-09-24 05:00:00 23.1 8 Oeste 16 Sudoeste -- -- -- 79
2020-09-24 04:00:00 23.2 8 Sudoeste 17 Norte -- -- -- 77
2020-09-24 03:00:00 24.2 2 Sudoeste 35 Noroeste -- -- -- 72
2020-09-24 02:00:00 23.8 21 Oeste 33 Oeste -- -- -- 70
2020-09-24 01:00:00 23.2 17 Oeste 29 Oeste -- -- -- 75
2020-09-24 00:00:00 23.3 9 Oeste 18 Noroeste -- -- -- 73
2020-09-23 23:00:00 23.5 16 Oeste 33 Oeste -- -- -- 72
2020-09-23 22:00:00 23.4 27 Oeste 42 Oeste -- -- -- 76
2020-09-23 21:00:00 23.1 20 Oeste 31 Noroeste -- -- -- 78
2020-09-23 20:00:00 23.5 15 Oeste 37 Sudoeste -- -- -- 75
2020-09-23 19:00:00 23.7 16 Oeste 43 Sudoeste -- -- -- 72
2020-09-23 18:00:00 24.2 16 Oeste 27 Noroeste -- -- -- 71
2020-09-23 17:00:00 24.8 11 Oeste 23 Oeste -- -- -- 73
2020-09-23 16:00:00 25.5 12 Oeste 23 Sudoeste -- -- -- 73
2020-09-23 15:00:00 24.7 11 Oeste 27 Oeste -- -- -- 77
2020-09-23 14:00:00 23.7 12 Oeste 22 Oeste -- -- -- 80
2020-09-23 13:00:00 23.3 5 Sudoeste 31 Noroeste -- -- -- 79
2020-09-23 12:00:00 22.5 14 Oeste 29 Oeste -- -- -- 83
2020-09-23 11:00:00 22.8 18 Oeste 31 Noroeste -- -- -- 85
2020-09-23 10:00:00 22.7 13 Oeste 29 Oeste -- -- -- 86
2020-09-23 09:00:00 22.3 16 Oeste 26 Oeste -- -- -- 86
2020-09-23 08:00:00 22.7 16 Oeste 25 Oeste -- -- -- 86
2020-09-23 07:00:00 22.6 18 Noroeste 28 Noroeste -- -- -- 86
2020-09-23 06:00:00 22.9 12 Oeste 18 Noroeste -- -- -- 85
2020-09-23 05:00:00 22.8 9 Oeste 22 Oeste -- -- -- 85
2020-09-23 04:00:00 22.8 12 Noroeste 30 Noroeste -- -- -- 85
2020-09-23 03:00:00 22.9 14 Oeste 26 Oeste -- -- -- 86
2020-09-23 02:00:00 23 18 Oeste 27 Noroeste -- -- -- 86
2020-09-23 01:00:00 23.4 10 Oeste 24 Oeste -- -- -- 86
2020-09-23 00:00:00 23.3 15 Oeste 28 Noroeste -- -- -- 85
2020-09-22 23:00:00 23.5 14 Oeste 22 Oeste -- -- -- 85
2020-09-22 22:00:00 23.8 10 Oeste 20 Oeste -- -- -- 83
2020-09-22 21:00:00 23.9 10 Oeste 19 Oeste -- -- -- 79
2020-09-22 20:00:00 24.2 8 Oeste 16 Oeste -- -- -- 75
2020-09-22 19:00:00 24.8 4 Oeste 13 Sudoeste -- -- -- 73
2020-09-22 18:00:00 25.3 5 Oeste 10 Sudoeste -- -- -- 70
2020-09-22 17:00:00 25.9 4 Sudoeste 10 Sudoeste -- -- -- 67
2020-09-22 16:00:00 26.4 5 Sudoeste 10 Sudoeste -- -- -- 68
2020-09-22 15:00:00 26 4 Sudoeste 13 Oeste -- -- -- 70
2020-09-22 14:00:00 26.1 7 Oeste 12 Noroeste -- -- -- 68
2020-09-22 13:00:00 26.1 7 Oeste 15 Oeste -- -- -- 73
2020-09-22 12:00:00 25.1 7 Oeste 10 Oeste -- -- -- 76
2020-09-22 11:00:00 24 3 Oeste 5 Oeste -- -- -- 78
2020-09-22 10:00:00 23.3 0 Calma 5 Sudoeste -- -- -- 79
2020-09-22 09:00:00 21.3 4 Oeste 15 Noroeste -- -- -- 77
2020-09-22 08:00:00 20.8 7 Noroeste 16 Noroeste -- -- -- 81
2020-09-22 07:00:00 21.1 12 Noroeste 20 Noroeste -- -- -- 87
2020-09-22 06:00:00 21.8 14 Noroeste 25 Noroeste -- -- -- 88
2020-09-22 05:00:00 22.2 10 Oeste 19 Noroeste -- -- -- 88
2020-09-22 04:00:00 22.3 15 Oeste 19 Noroeste -- -- -- 87
2020-09-22 03:00:00 22.3 11 Oeste 15 Noroeste -- -- -- 87
2020-09-22 02:00:00 22.4 6 Noroeste 12 Oeste -- -- -- 86
2020-09-22 01:00:00 23 9 Oeste 15 Sudoeste -- -- -- 85
2020-09-22 00:00:00 23.1 8 Oeste 13 Oeste -- -- -- 85
2020-09-21 23:00:00 23.5 5 Oeste 11 Oeste -- -- -- 84
2020-09-21 22:00:00 23.5 5 Oeste 13 Oeste -- -- -- 84
2020-09-21 21:00:00 24 5 Oeste 10 Oeste -- -- -- 82
2020-09-21 20:00:00 24.3 6 Oeste 13 Sudoeste -- -- -- 80
2020-09-21 19:00:00 24.6 4 Sudoeste 8 Oeste -- -- -- 79
2020-09-21 18:00:00 24.7 4 Sudeste 10 Sudeste -- -- -- 77
2020-09-21 17:00:00 25.9 4 Sudeste 16 Este -- -- -- 75
2020-09-21 16:00:00 26.5 7 Este 13 Este -- -- -- 75
2020-09-21 15:00:00 26.4 7 Este 12 Este -- -- -- 74
2020-09-21 14:00:00 26.9 4 Sudeste 8 Este -- -- -- 73
2020-09-21 13:00:00 26.2 4 Sudeste 8 Sudeste -- -- -- 76
2020-09-21 12:00:00 24.8 4 Este 10 Este -- -- -- 79
2020-09-21 11:00:00 23.4 3 Este 21 Este -- -- -- 82
2020-09-21 10:00:00 22.7 11 Este 22 Este -- -- -- 83
2020-09-21 09:00:00 22 17 Este 23 Este -- -- -- 85
2020-09-21 08:00:00 21.6 9 Este 12 Este -- -- -- 86
2020-09-21 07:00:00 21.7 3 Este 13 Norte -- -- -- 86
2020-09-21 06:00:00 21.7 9 Noroeste 14 Oeste -- -- -- 86
2020-09-21 05:00:00 22.5 3 Sudoeste 12 Sudoeste -- -- -- 86
2020-09-21 04:00:00 22.6 6 Oeste 12 Oeste -- -- -- 86
2020-09-21 03:00:00 22.4 3 Sur 12 Oeste -- -- -- 85
2020-09-21 02:00:00 22.5 4 Sudeste 15 Sur -- -- -- 85
2020-09-21 01:00:00 22.8 3 Sudeste 10 Sudoeste -- -- -- 83
2020-09-21 00:00:00 22.8 5 Oeste 16 Oeste -- -- -- 83
2020-09-20 23:00:00 22.9 11 Oeste 20 Oeste -- -- -- 82
2020-09-20 22:00:00 22.9 11 Oeste 20 Oeste -- -- -- 80
2020-09-20 21:00:00 23.1 10 Sudoeste 23 Oeste -- -- -- 78
2020-09-20 20:00:00 23.6 15 Oeste 26 Oeste -- -- -- 76
2020-09-20 19:00:00 24.1 11 Oeste 20 Sudoeste -- -- -- 72
2020-09-20 18:00:00 24.7 12 Oeste 19 Oeste -- -- -- 71
2020-09-20 17:00:00 25.3 11 Sudoeste 21 Sudoeste -- -- -- 68
2020-09-20 16:00:00 26.1 6 Oeste 22 Oeste -- -- -- 67
2020-09-20 15:00:00 26.1 13 Sudoeste 23 Oeste -- -- -- 66
2020-09-20 14:00:00 26.7 7 Oeste 18 Sudoeste -- -- -- 68
2020-09-20 13:00:00 26.5 5 Sudoeste 14 Oeste -- -- -- 71
2020-09-20 12:00:00 25.4 5 Oeste 16 Oeste -- -- -- 77
2020-09-20 11:00:00 24 7 Oeste 15 Sudoeste -- -- -- 83
2020-09-20 10:00:00 23.1 5 Oeste 23 Oeste -- -- -- 86
2020-09-20 09:00:00 21.9 16 Oeste 26 Noroeste -- -- -- 87
2020-09-20 08:00:00 21.9 17 Oeste 26 Oeste -- -- -- 86
2020-09-20 07:00:00 21.9 12 Oeste 24 Sudoeste -- -- -- 85
2020-09-20 06:00:00 22.1 10 Oeste 22 Sudoeste -- -- -- 85
2020-09-20 05:00:00 22.4 11 Oeste 21 Sudoeste -- -- -- 85
2020-09-20 04:00:00 22.6 15 Oeste 21 Oeste -- -- -- 85
2020-09-20 03:00:00 22.8 9 Oeste 30 Noroeste -- -- -- 84
2020-09-20 02:00:00 22.7 21 Oeste 32 Oeste -- -- -- 85
2020-09-20 01:00:00 23.1 11 Oeste 21 Oeste -- -- -- 84
2020-09-20 00:00:00 23.2 6 Sudoeste 22 Oeste -- -- -- 82
2020-09-19 23:00:00 23.2 13 Oeste 30 Oeste -- -- -- 80
2020-09-19 22:00:00 23.3 23 Oeste 32 Oeste -- -- -- 78
2020-09-19 21:00:00 23.3 16 Oeste 40 Oeste -- -- -- 77
2020-09-19 20:00:00 23.3 23 Oeste 42 Sudoeste -- -- -- 76
2020-09-19 19:00:00 23.6 21 Oeste 50 Oeste -- -- -- 75
2020-09-19 18:00:00 23.9 24 Oeste 44 Sudoeste -- -- -- 73
2020-09-19 17:00:00 24.3 19 Oeste 41 Sudoeste -- -- -- 71
2020-09-19 16:00:00 25.1 22 Sudoeste 37 Sudoeste -- -- -- 70
2020-09-19 15:00:00 25.3 17 Oeste 32 Sudoeste -- -- -- 71
2020-09-19 14:00:00 25.2 16 Oeste 33 Oeste -- -- -- 70
2020-09-19 13:00:00 25.8 18 Oeste 37 Oeste -- -- -- 71
2020-09-19 12:00:00 25.3 17 Oeste 29 Sudoeste -- -- -- 75
2020-09-19 11:00:00 24.3 14 Oeste 28 Sudoeste -- -- -- 76
2020-09-19 10:00:00 23.8 14 Oeste 37 Oeste -- -- -- 78
2020-09-19 09:00:00 23.1 24 Oeste 37 Sudoeste -- -- -- 80
2020-09-19 08:00:00 22.5 22 Oeste 30 Oeste -- -- -- 79
2020-09-19 07:00:00 22.9 8 Sudoeste 38 Sudoeste -- -- -- 77
2020-09-19 06:00:00 22.8 25 Oeste 41 Sudoeste -- -- -- 77
2020-09-19 05:00:00 22.8 22 Oeste 40 Oeste -- -- -- 79
2020-09-19 04:00:00 23 14 Sur 32 Oeste -- -- -- 80
2020-09-19 03:00:00 23.1 10 Sudoeste 26 Oeste -- -- -- 81
2020-09-19 02:00:00 23.5 6 Oeste 26 Oeste -- -- -- 81
2020-09-19 01:00:00 23.8 15 Oeste 35 Sudoeste -- -- -- 78
2020-09-19 00:00:00 23.8 4 Noroeste 11 Oeste -- -- -- 72
2020-09-18 23:00:00 24.1 4 Norte 16 Norte -- -- -- 70
2020-09-18 22:00:00 24.2 12 Norte 15 Norte -- -- -- 70
2020-09-18 21:00:00 24.7 6 Norte 18 Norte -- -- -- 67
2020-09-18 20:00:00 25.5 8 Nordeste 32 Nordeste -- -- -- 63
2020-09-18 19:00:00 25.7 17 Nordeste 28 Nordeste -- -- -- 62
2020-09-18 18:00:00 25.5 8 Nordeste 23 Nordeste -- -- -- 69
2020-09-18 17:00:00 25.1 18 Nordeste 29 Nordeste -- -- -- 70
2020-09-18 16:00:00 24.9 12 Este 21 Este -- -- -- 71
2020-09-18 15:00:00 24.9 3 Este 18 Oeste -- -- -- 77
2020-09-18 14:00:00 22.8 3 Norte 27 Oeste -- -- -- 82
2020-09-18 13:00:00 21.6 26 Noroeste 52 Noroeste -- -- -- 80
2020-09-18 12:00:00 23.8 15 Oeste 28 Nordeste -- -- -- 77
2020-09-18 11:00:00 23.2 25 Nordeste 45 Nordeste -- -- -- 76
2020-09-18 10:00:00 22.7 8 Norte 18 Nordeste -- -- -- 77
2020-09-18 09:00:00 22.7 9 Nordeste 20 Nordeste -- -- -- 76
2020-09-18 08:00:00 23.1 16 Nordeste 27 Nordeste -- -- -- 72
2020-09-18 07:00:00 22.5 26 Norte 69 Norte -- -- -- 69
2020-09-18 06:00:00 22.7 43 Noroeste 73 Norte -- -- -- 66
2020-09-18 05:00:00 24 31 Noroeste 74 Oeste -- -- -- 61
2020-09-18 04:00:00 24.7 43 Oeste 69 Oeste -- -- -- 64
2020-09-18 03:00:00 24.3 45 Oeste 67 Oeste -- -- -- 69
2020-09-18 02:00:00 25.2 40 Oeste 57 Sudoeste -- -- -- 66
2020-09-18 01:00:00 24.8 19 Noroeste 29 Noroeste -- -- -- 70
2020-09-18 00:00:00 26.1 5 Oeste 31 Oeste -- -- -- 72
2020-09-17 23:00:00 25.9 22 Noroeste 38 Noroeste -- -- -- 71
2020-09-17 22:00:00 25.4 14 Este 23 Este -- -- -- 74
2020-09-17 21:00:00 26 9 Este 27 Este -- -- -- 71
2020-09-17 20:00:00 26.4 10 Este 32 Este -- -- -- 69
2020-09-17 19:00:00 26.9 22 Este 31 Este -- -- -- 67
2020-09-17 18:00:00 26.6 7 Nordeste 42 Este -- -- -- 73
2020-09-17 17:00:00 26 30 Este 42 Este -- -- -- 77
2020-09-17 16:00:00 25.6 32 Este 49 Este -- -- -- 82
2020-09-17 15:00:00 25.1 35 Este 48 Este -- -- -- 83
2020-09-17 14:00:00 25.6 35 Este 47 Este -- -- -- 82
2020-09-17 13:00:00 25.2 34 Este 47 Este -- -- -- 83
2020-09-17 12:00:00 24.9 24 Este 31 Este -- -- -- 83
2020-09-17 11:00:00 25.1 13 Este 23 Este -- -- -- 84
2020-09-17 10:00:00 24.5 3 Nordeste 8 Este -- -- -- 84
2020-09-17 09:00:00 24.1 0 Calma 7 Este -- -- -- 85
2020-09-17 08:00:00 24.1 0 Calma 9 Este -- -- -- 85
2020-09-17 07:00:00 24.1 6 Este 22 Este -- -- -- 84
2020-09-17 06:00:00 24.1 13 Este 17 Este -- -- -- 83
2020-09-17 05:00:00 23.9 3 Este 10 Norte -- -- -- 84
2020-09-17 04:00:00 23.8 7 Norte 14 Norte -- -- -- 84
2020-09-17 03:00:00 24.2 8 Oeste 18 Noroeste -- -- -- 82
2020-09-17 02:00:00 23.9 6 Noroeste 10 Noroeste -- -- -- 82
2020-09-17 01:00:00 24.4 4 Noroeste 13 Oeste -- -- -- 81
2020-09-17 00:00:00 24.4 5 Norte 12 Este -- -- -- 81
2020-09-16 23:00:00 24.5 5 Nordeste 13 Este -- -- -- 80
2020-09-16 22:00:00 24.7 0 Calma 21 Este -- -- -- 80
2020-09-16 21:00:00 24.7 14 Este 30 Este -- -- -- 80
2020-09-16 20:00:00 24.8 12 Este 35 Nordeste -- -- -- 80
2020-09-16 19:00:00 24.8 19 Este 42 Este -- -- -- 83
2020-09-16 18:00:00 24.7 32 Este 48 Este -- -- -- 83
2020-09-16 17:00:00 24.7 34 Este 52 Este -- -- -- 83
2020-09-16 16:00:00 25 35 Este 45 Este -- -- -- 81
2020-09-16 15:00:00 25.2 36 Este 44 Este -- -- -- 80
2020-09-16 14:00:00 25.5 31 Este 38 Este -- -- -- 78
2020-09-16 13:00:00 25.4 28 Este 43 Este -- -- -- 78
2020-09-16 12:00:00 25.5 34 Este 40 Este -- -- -- 75
2020-09-16 11:00:00 25.5 29 Este 35 Este -- -- -- 74
2020-09-16 10:00:00 25.1 21 Este 29 Este -- -- -- 74
2020-09-16 09:00:00 24.6 12 Este 19 Este -- -- -- 73
2020-09-16 08:00:00 23.2 7 Este 10 Este -- -- -- 74
2020-09-16 07:00:00 23.2 8 Norte 13 Norte -- -- -- 72
2020-09-16 06:00:00 23.1 7 Norte 10 Norte -- -- -- 75
2020-09-16 05:00:00 22.7 7 Noroeste 12 Norte -- -- -- 80
2020-09-16 04:00:00 23.2 5 Norte 9 Norte -- -- -- 81
2020-09-16 03:00:00 23 7 Noroeste 11 Noroeste -- -- -- 80
2020-09-16 02:00:00 23.4 3 Norte 11 Norte -- -- -- 80
2020-09-16 01:00:00 23.7 7 Norte 9 Norte -- -- -- 81
2020-09-16 00:00:00 24 4 Norte 7 Noroeste -- -- -- 81
2020-09-15 23:00:00 24.4 0 Calma 15 Nordeste -- -- -- 81
2020-09-15 22:00:00 24.6 8 Este 18 Nordeste -- -- -- 81
2020-09-15 21:00:00 24.7 12 Este 30 Este -- -- -- 81
2020-09-15 20:00:00 24.7 25 Este 36 Este -- -- -- 80
2020-09-15 19:00:00 25 28 Este 36 Este -- -- -- 76
2020-09-15 18:00:00 25.3 27 Este 45 Este -- -- -- 74
2020-09-15 17:00:00 25.6 32 Este 60 Este -- -- -- 72
2020-09-15 16:00:00 25.7 36 Este 44 Este -- -- -- 70
2020-09-15 15:00:00 26.1 36 Este 46 Este -- -- -- 69
2020-09-15 14:00:00 26.6 37 Este 48 Este -- -- -- 65
2020-09-15 13:00:00 26.5 36 Este 55 Este -- -- -- 65
2020-09-15 12:00:00 26.9 37 Este 46 Este -- -- -- 62
2020-09-15 11:00:00 28.2 11 Este 29 Nordeste -- -- -- 55
2020-09-15 10:00:00 26.7 15 Nordeste 26 Nordeste -- -- -- 62
2020-09-15 09:00:00 25.6 10 Norte 21 Nordeste -- -- -- 63
2020-09-15 08:00:00 24.9 9 Nordeste 32 Nordeste -- -- -- 64
2020-09-15 07:00:00 24.9 13 Norte 30 Nordeste -- -- -- 66
2020-09-15 06:00:00 24.9 13 Nordeste 23 Nordeste -- -- -- 65
2020-09-15 05:00:00 24.8 6 Norte 41 Nordeste -- -- -- 66
2020-09-15 04:00:00 24.9 13 Nordeste 39 Este -- -- -- 68
2020-09-15 03:00:00 24.3 14 Norte 30 Nordeste -- -- -- 73
2020-09-15 02:00:00 24.3 11 Norte 16 Noroeste -- -- -- 76
2020-09-15 01:00:00 24.7 9 Norte 44 Nordeste -- -- -- 76
2020-09-15 00:00:00 25 17 Nordeste 51 Nordeste -- -- -- 73
2020-09-14 23:00:00 25.1 36 Nordeste 66 Nordeste -- -- -- 71
2020-09-14 22:00:00 25.2 39 Nordeste 54 Nordeste -- -- -- 69
2020-09-14 21:00:00 25.6 41 Nordeste 58 Nordeste -- -- -- 64
2020-09-14 20:00:00 25.8 37 Nordeste 64 Nordeste -- -- -- 63
2020-09-14 19:00:00 26.2 36 Nordeste 59 Nordeste -- -- -- 62
2020-09-14 18:00:00 26.7 33 Nordeste 57 Nordeste -- -- -- 62
2020-09-14 17:00:00 27.2 38 Nordeste 61 Nordeste -- -- -- 60
2020-09-14 16:00:00 28.1 33 Nordeste 58 Nordeste -- -- -- 60
2020-09-14 15:00:00 26.9 38 Nordeste 69 Nordeste -- -- -- 65
2020-09-14 14:00:00 25.1 44 Nordeste 68 Nordeste -- -- -- 73
2020-09-14 13:00:00 24.9 45 Nordeste 71 Nordeste -- -- -- 71
2020-09-14 12:00:00 26.2 24 Nordeste 47 Este -- -- -- 63
2020-09-14 11:00:00 26.2 26 Nordeste 45 Nordeste -- -- -- 62
2020-09-14 10:00:00 26.5 20 Nordeste 45 Este -- -- -- 57
2020-09-14 09:00:00 25.6 27 Nordeste 57 Nordeste -- -- -- 59
2020-09-14 08:00:00 25.7 21 Norte 33 Norte -- -- -- 56
2020-09-14 07:00:00 25.5 17 Norte 41 Nordeste -- -- -- 58
2020-09-14 06:00:00 26 18 Norte 40 Nordeste -- -- -- 52
2020-09-14 05:00:00 26.2 21 Norte 42 Nordeste -- -- -- 49
2020-09-14 04:00:00 26.4 26 Nordeste 40 Nordeste -- -- -- 48
2020-09-14 03:00:00 26.5 14 Norte 35 Nordeste -- -- -- 53
2020-09-14 02:00:00 26.9 14 Nordeste 37 Norte -- -- -- 52
2020-09-14 01:00:00 26.9 15 Norte 35 Nordeste -- -- -- 52
2020-09-14 00:00:00 27.1 13 Nordeste 42 Norte -- -- -- 51
2020-09-13 23:00:00 26.9 19 Nordeste 54 Nordeste -- -- -- 55
2020-09-13 22:00:00 26.5 28 Norte 46 Nordeste -- -- -- 59
2020-09-13 21:00:00 26.4 23 Nordeste 41 Nordeste -- -- -- 60
2020-09-13 20:00:00 27.2 18 Nordeste 41 Norte -- -- -- 60
2020-09-13 19:00:00 27.7 18 Norte 58 Este -- -- -- 54
2020-09-13 18:00:00 27.7 30 Nordeste 86 Nordeste -- -- -- 54
2020-09-13 17:00:00 27.8 31 Nordeste 59 Nordeste -- -- -- 54
2020-09-13 16:00:00 28.6 26 Nordeste 59 Nordeste -- -- -- 53
2020-09-13 15:00:00 28.3 21 Nordeste 56 Este -- -- -- 51
2020-09-13 14:00:00 28.7 25 Este 48 Nordeste -- -- -- 50
2020-09-13 13:00:00 27.7 31 Nordeste 63 Este -- -- -- 50
2020-09-13 12:00:00 27.8 39 Nordeste 61 Nordeste -- -- -- 49
2020-09-13 11:00:00 27.9 28 Nordeste 54 Este -- -- -- 48
2020-09-13 10:00:00 27.3 28 Nordeste 53 Nordeste -- -- -- 48
2020-09-13 09:00:00 26.6 22 Nordeste 43 Nordeste -- -- -- 48
2020-09-13 08:00:00 26.4 21 Nordeste 46 Nordeste -- -- -- 47
2020-09-13 07:00:00 26.3 21 Nordeste 48 Nordeste -- -- -- 46
2020-09-13 06:00:00 26.4 15 Norte 44 Nordeste -- -- -- 47
2020-09-13 05:00:00 26.5 25 Norte 52 Norte -- -- -- 48
2020-09-13 04:00:00 26.3 22 Norte 41 Norte -- -- -- 51
2020-09-13 03:00:00 26.5 17 Norte 44 Este -- -- -- 51
2020-09-13 02:00:00 26 24 Nordeste 49 Nordeste -- -- -- 56
2020-09-13 01:00:00 26 26 Nordeste 60 Nordeste -- -- -- 57
2020-09-13 00:00:00 26 26 Nordeste 61 Este -- -- -- 57
2020-09-12 23:00:00 26 30 Nordeste 59 Nordeste -- -- -- 58
2020-09-12 22:00:00 26.2 39 Nordeste 62 Nordeste -- -- -- 55
2020-09-12 21:00:00 26.6 37 Nordeste 64 Nordeste -- -- -- 53
2020-09-12 20:00:00 27.1 41 Nordeste 63 Nordeste -- -- -- 50
2020-09-12 19:00:00 27.7 40 Nordeste 66 Este -- -- -- 47
2020-09-12 18:00:00 28.2 31 Nordeste 53 Este -- -- -- 46
2020-09-12 17:00:00 28.9 33 Nordeste 55 Nordeste -- -- -- 41
2020-09-12 16:00:00 29.6 33 Nordeste 51 Nordeste -- -- -- 40
2020-09-12 15:00:00 29.5 26 Este 50 Nordeste -- -- -- 43
2020-09-12 14:00:00 29.2 32 Nordeste 56 Nordeste -- -- -- 45
2020-09-12 13:00:00 29 27 Nordeste 56 Nordeste -- -- -- 45
2020-09-12 12:00:00 28.7 35 Nordeste 59 Nordeste -- -- -- 45
2020-09-12 11:00:00 28.3 30 Nordeste 51 Este -- -- -- 46
2020-09-12 10:00:00 27.7 26 Nordeste 41 Nordeste -- -- -- 47
2020-09-12 09:00:00 26.8 24 Nordeste 42 Nordeste -- -- -- 46
2020-09-12 08:00:00 26.4 25 Nordeste 43 Nordeste -- -- -- 46
2020-09-12 07:00:00 26.1 14 Norte 32 Este -- -- -- 47
2020-09-12 06:00:00 25.9 6 Norte 28 Nordeste -- -- -- 48
2020-09-12 05:00:00 26.3 14 Nordeste 32 Nordeste -- -- -- 47
2020-09-12 04:00:00 26.5 12 Nordeste 35 Nordeste -- -- -- 46
2020-09-12 03:00:00 25.7 6 Noroeste 16 Este -- -- -- 46
2020-09-12 02:00:00 25.9 8 Noroeste 40 Nordeste -- -- -- 46
2020-09-12 01:00:00 26.6 18 Nordeste 33 Nordeste -- -- -- 44
2020-09-12 00:00:00 26.5 6 Norte 33 Nordeste -- -- -- 40
2020-09-11 23:00:00 27 22 Nordeste 33 Nordeste -- -- -- 36
2020-09-11 22:00:00 27 24 Nordeste 33 Nordeste -- -- -- 36
2020-09-11 21:00:00 25.9 6 Noroeste 29 Este -- -- -- 46
2020-09-11 20:00:00 26 16 Este 30 Este -- -- -- 50
2020-09-11 19:00:00 25.9 18 Este 37 Este -- -- -- 60
2020-09-11 18:00:00 25.1 30 Este 42 Este -- -- -- 71
2020-09-11 17:00:00 24.6 34 Este 57 Este -- -- -- 74
2020-09-11 16:00:00 25.3 31 Este 37 Este -- -- -- 71
2020-09-11 15:00:00 25.6 26 Este 35 Este -- -- -- 69
2020-09-11 14:00:00 25.5 26 Este 36 Este -- -- -- 72
2020-09-11 13:00:00 25.3 26 Este 42 Este -- -- -- 74
2020-09-11 12:00:00 25.1 31 Este 39 Este -- -- -- 74
2020-09-11 11:00:00 24.9 24 Este 31 Este -- -- -- 75
2020-09-11 10:00:00 24.9 20 Este 27 Este -- -- -- 73
2020-09-11 09:00:00 23.9 17 Nordeste 24 Nordeste -- -- -- 74
2020-09-11 08:00:00 22.7 8 Nordeste 16 Nordeste -- -- -- 72
2020-09-11 07:00:00 22.9 6 Nordeste 15 Nordeste -- -- -- 71
2020-09-11 06:00:00 23.1 9 Nordeste 14 Nordeste -- -- -- 67
2020-09-11 05:00:00 23.1 5 Norte 19 Nordeste -- -- -- 63
2020-09-11 04:00:00 23.1 5 Nordeste 18 Nordeste -- -- -- 65
2020-09-11 03:00:00 23.1 0 Calma 11 Noroeste -- -- -- 66
2020-09-11 02:00:00 22.9 6 Noroeste 12 Noroeste -- -- -- 66
2020-09-11 01:00:00 23.1 5 Norte 11 Norte -- -- -- 65
2020-09-11 00:00:00 23 4 Norte 9 Este -- -- -- 67
2020-09-10 23:00:00 23.3 8 Nordeste 21 Este -- -- -- 77
2020-09-10 22:00:00 23.5 12 Nordeste 24 Nordeste -- -- -- 78
2020-09-10 21:00:00 23.7 12 Este 27 Este -- -- -- 76
2020-09-10 20:00:00 24.3 5 Este 10 Este -- -- -- 74
2020-09-10 19:00:00 24.8 3 Sur 10 Sur -- -- -- 72
2020-09-10 18:00:00 25.6 5 Sudoeste 10 Oeste -- -- -- 71
2020-09-10 17:00:00 26.2 4 Sudoeste 11 Sur -- -- -- 69
2020-09-10 16:00:00 26.6 6 Sur 13 Sur -- -- -- 68
2020-09-10 15:00:00 27.3 5 Sur 12 Este -- -- -- 66
2020-09-10 14:00:00 27 8 Sudeste 15 Sudeste -- -- -- 66
2020-09-10 13:00:00 27.7 6 Sudeste 12 Sudeste -- -- -- 61
2020-09-10 12:00:00 27.8 5 Sur 12 Oeste -- -- -- 61
2020-09-10 11:00:00 26.6 7 Oeste 12 Oeste -- -- -- 61
2020-09-10 10:00:00 25.6 4 Oeste 11 Oeste -- -- -- 67
2020-09-10 09:00:00 22.9 8 Norte 13 Norte -- -- -- 72
2020-09-10 08:00:00 22.1 5 Noroeste 22 Noroeste -- -- -- 72
2020-09-10 07:00:00 21.7 12 Norte 19 Noroeste -- -- -- 70
2020-09-10 06:00:00 21.7 7 Noroeste 12 Noroeste -- -- -- 67
2020-09-10 05:00:00 22 8 Noroeste 11 Noroeste -- -- -- 66
2020-09-10 04:00:00 22 5 Noroeste 8 Noroeste -- -- -- 62
2020-09-10 03:00:00 21.9 6 Norte 10 Noroeste -- -- -- 59
2020-09-10 02:00:00 22.6 4 Norte 7 Norte -- -- -- 61
2020-09-10 01:00:00 22.9 0 Calma 7 Norte -- -- -- 61
2020-09-10 00:00:00 23.2 6 Noroeste 18 Nordeste -- -- -- 61
2020-09-09 23:00:00 23.6 8 Nordeste 17 Nordeste -- -- -- 61
2020-09-09 22:00:00 23.5 8 Nordeste 21 Nordeste -- -- -- 59
2020-09-09 21:00:00 23.8 13 Nordeste 23 Este -- -- -- 57
2020-09-09 20:00:00 23.8 15 Este 37 Este -- -- -- 63
2020-09-09 19:00:00 23.7 31 Este 39 Este -- -- -- 65
2020-09-09 18:00:00 23.8 31 Este 39 Este -- -- -- 65
2020-09-09 17:00:00 24 31 Este 37 Este -- -- -- 66
2020-09-09 16:00:00 24.6 29 Este 39 Este -- -- -- 65
2020-09-09 15:00:00 24.6 32 Este 41 Este -- -- -- 64
2020-09-09 14:00:00 24.7 35 Este 44 Este -- -- -- 63
2020-09-09 13:00:00 24.7 35 Este 50 Este -- -- -- 62
2020-09-09 12:00:00 24.7 32 Este 41 Este -- -- -- 62
2020-09-09 11:00:00 24.7 30 Este 39 Este -- -- -- 62
2020-09-09 10:00:00 24.7 16 Este 29 Este -- -- -- 60
2020-09-09 09:00:00 23.3 12 Nordeste 28 Nordeste -- -- -- 66
2020-09-09 08:00:00 22.2 10 Norte 24 Nordeste -- -- -- 67
2020-09-09 07:00:00 22.1 9 Nordeste 19 Nordeste -- -- -- 66
2020-09-09 06:00:00 22.2 6 Nordeste 22 Norte -- -- -- 68
2020-09-09 05:00:00 22.5 10 Norte 24 Nordeste -- -- -- 70
2020-09-09 04:00:00 22.6 10 Norte 20 Nordeste -- -- -- 70
2020-09-09 03:00:00 22.8 6 Norte 26 Este -- -- -- 69
2020-09-09 02:00:00 23 11 Nordeste 36 Nordeste -- -- -- 69
2020-09-09 01:00:00 23.2 10 Nordeste 26 Nordeste -- -- -- 69
2020-09-09 00:00:00 23.2 17 Nordeste 31 Este -- -- -- 66
2020-09-08 23:00:00 23.2 17 Nordeste 49 Nordeste -- -- -- 67
2020-09-08 22:00:00 23.4 21 Nordeste 50 Este -- -- -- 66
2020-09-08 21:00:00 23.6 32 Nordeste 56 Nordeste -- -- -- 65
2020-09-08 20:00:00 23.8 37 Nordeste 57 Este -- -- -- 62
2020-09-08 19:00:00 24.1 30 Nordeste 60 Este -- -- -- 64
2020-09-08 18:00:00 24.4 34 Este 62 Este -- -- -- 68
2020-09-08 17:00:00 25 35 Este 67 Este -- -- -- 61
2020-09-08 16:00:00 25.4 39 Este 67 Sudeste -- -- -- 58
2020-09-08 15:00:00 25.6 39 Este 66 Este -- -- -- 59
2020-09-08 14:00:00 25.9 39 Nordeste 58 Nordeste -- -- -- 60
2020-09-08 13:00:00 25.5 32 Nordeste 54 Nordeste -- -- -- 60
2020-09-08 12:00:00 24.6 24 Nordeste 48 Nordeste -- -- -- 62
2020-09-08 11:00:00 24.4 25 Nordeste 45 Nordeste -- -- -- 64
2020-09-08 10:00:00 23.6 27 Nordeste 44 Este -- -- -- 67
2020-09-08 09:00:00 23.4 18 Norte 41 Nordeste -- -- -- 69
2020-09-08 08:00:00 23.6 24 Nordeste 40 Nordeste -- -- -- 71
2020-09-08 07:00:00 23.8 28 Nordeste 56 Este -- -- -- 70
2020-09-08 06:00:00 23.8 32 Nordeste 51 Nordeste -- -- -- 69
2020-09-08 05:00:00 23.9 38 Nordeste 57 Este -- -- -- 69
2020-09-08 04:00:00 24 27 Nordeste 49 Nordeste -- -- -- 72
2020-09-08 03:00:00 24 34 Nordeste 53 Nordeste -- -- -- 71
2020-09-08 02:00:00 24 32 Nordeste 54 Este -- -- -- 71
2020-09-08 01:00:00 24.4 30 Nordeste 54 Este -- -- -- 74
2020-09-08 00:00:00 24.4 34 Nordeste 55 Este -- -- -- 76
2020-09-07 23:00:00 24.5 32 Nordeste 59 Nordeste -- -- -- 75
2020-09-07 22:00:00 24.4 18 Nordeste 41 Este -- -- -- 73
2020-09-07 21:00:00 24.2 19 Nordeste 33 Este -- -- -- 73
2020-09-07 20:00:00 24.5 13 Este 29 Este -- -- -- 74
2020-09-07 19:00:00 24.8 19 Este 24 Este -- -- -- 75
2020-09-07 18:00:00 25.4 8 Este 11 Este -- -- -- 73
2020-09-07 17:00:00 26.1 5 Sudeste 10 Sudeste -- -- -- 70
2020-09-07 16:00:00 27.2 5 Sur 10 Sur -- -- -- 69
2020-09-07 15:00:00 27.3 5 Sur 11 Este -- -- -- 69
2020-09-07 14:00:00 27.9 5 Sudeste 10 Sudeste -- -- -- 68
2020-09-07 13:00:00 27.3 5 Sudeste 9 Sudeste -- -- -- 69
2020-09-07 12:00:00 26.2 6 Sur 10 Sur -- -- -- 74
2020-09-07 11:00:00 26.2 3 Sudoeste 5 Sur -- -- -- 79
2020-09-07 10:00:00 24.9 3 Oeste 9 Oeste -- -- -- 83
2020-09-07 09:00:00 24 4 Oeste 10 Oeste -- -- -- 86
2020-09-07 08:00:00 22.5 7 Oeste 12 Oeste -- -- -- 86
2020-09-07 07:00:00 22.5 5 Noroeste 14 Noroeste -- -- -- 85
2020-09-07 06:00:00 22.7 8 Noroeste 13 Noroeste -- -- -- 84
2020-09-07 05:00:00 22.6 5 Noroeste 10 Norte -- -- -- 82
2020-09-07 04:00:00 22.8 6 Norte 13 Norte -- -- -- 82
2020-09-07 03:00:00 23.1 4 Norte 8 Norte -- -- -- 81
2020-09-07 02:00:00 23.3 3 Noroeste 8 Norte -- -- -- 81
2020-09-07 01:00:00 23.5 4 Norte 8 Noroeste -- -- -- 80
2020-09-07 00:00:00 24 2 Norte 12 Este -- -- -- 79
2020-09-06 23:00:00 24.2 10 Este 16 Nordeste -- -- -- 78
2020-09-06 22:00:00 24.4 9 Este 19 Nordeste -- -- -- 77
2020-09-06 21:00:00 24.7 8 Este 27 Nordeste -- -- -- 75
2020-09-06 20:00:00 24.8 16 Este 43 Este -- -- -- 74
2020-09-06 19:00:00 24.8 30 Este 42 Este -- -- -- 73
2020-09-06 18:00:00 24.8 31 Este 40 Este -- -- -- 75
2020-09-06 17:00:00 24.9 35 Este 48 Este -- -- -- 72
2020-09-06 16:00:00 25.2 39 Este 50 Este -- -- -- 72
2020-09-06 15:00:00 25.4 38 Este 51 Este -- -- -- 72
2020-09-06 14:00:00 25.7 37 Este 54 Este -- -- -- 70
2020-09-06 13:00:00 26 35 Este 53 Este -- -- -- 68
2020-09-06 12:00:00 26 34 Este 45 Este -- -- -- 67
2020-09-06 11:00:00 26 31 Este 43 Este -- -- -- 67
2020-09-06 10:00:00 25.5 20 Este 29 Nordeste -- -- -- 70
2020-09-06 09:00:00 23.9 7 Norte 12 Nordeste -- -- -- 74
2020-09-06 08:00:00 23.3 8 Norte 20 Nordeste -- -- -- 76
2020-09-06 07:00:00 23.4 13 Nordeste 28 Este -- -- -- 75
2020-09-06 06:00:00 23.5 17 Nordeste 27 Nordeste -- -- -- 74
2020-09-06 05:00:00 23.6 16 Nordeste 24 Nordeste -- -- -- 73
2020-09-06 04:00:00 23.7 9 Nordeste 25 Nordeste -- -- -- 70
2020-09-06 03:00:00 23.9 13 Nordeste 29 Nordeste -- -- -- 69
2020-09-06 02:00:00 24.1 19 Nordeste 34 Nordeste -- -- -- 69
2020-09-06 01:00:00 23.8 11 Nordeste 20 Norte -- -- -- 73
2020-09-06 00:00:00 23.9 10 Nordeste 21 Nordeste -- -- -- 74
2020-09-05 23:00:00 24.1 13 Nordeste 30 Este -- -- -- 73
2020-09-05 22:00:00 24.2 23 Nordeste 45 Este -- -- -- 72
2020-09-05 21:00:00 24.3 25 Nordeste 44 Este -- -- -- 72
2020-09-05 20:00:00 24.5 26 Este 44 Este -- -- -- 72
2020-09-05 19:00:00 24.4 31 Este 48 Este -- -- -- 74
2020-09-05 18:00:00 24.4 39 Este 46 Este -- -- -- 74
2020-09-05 17:00:00 24.8 36 Este 48 Este -- -- -- 73
2020-09-05 16:00:00 25.2 37 Este 50 Este -- -- -- 72
2020-09-05 15:00:00 25.4 41 Este 53 Este -- -- -- 70
2020-09-05 14:00:00 25.7 42 Este 53 Este -- -- -- 68
2020-09-05 13:00:00 26.4 29 Este 42 Este -- -- -- 63
2020-09-05 12:00:00 26.2 28 Este 46 Este -- -- -- 62
2020-09-05 11:00:00 26.3 23 Este 35 Este -- -- -- 61
2020-09-05 10:00:00 25.9 15 Este 34 Nordeste -- -- -- 62
2020-09-05 09:00:00 24.4 4 Oeste 18 Noroeste -- -- -- 67
2020-09-05 08:00:00 22.9 6 Noroeste 22 Norte -- -- -- 69
2020-09-05 07:00:00 23.3 10 Norte 28 Noroeste -- -- -- 68
2020-09-05 06:00:00 23.3 14 Norte 21 Nordeste -- -- -- 68
2020-09-05 05:00:00 23.2 7 Norte 25 Norte -- -- -- 70
2020-09-05 04:00:00 23.5 5 Norte 19 Nordeste -- -- -- 70
2020-09-05 03:00:00 23.8 6 Norte 27 Este -- -- -- 71
2020-09-05 02:00:00 24.1 6 Norte 35 Nordeste -- -- -- 72
2020-09-05 01:00:00 24.2 16 Nordeste 31 Nordeste -- -- -- 72
2020-09-05 00:00:00 24.4 14 Nordeste 38 Nordeste -- -- -- 71
2020-09-04 23:00:00 24.6 13 Norte 59 Nordeste -- -- -- 70
2020-09-04 22:00:00 24.6 33 Nordeste 71 Nordeste -- -- -- 69
2020-09-04 21:00:00 24.8 46 Nordeste 71 Este -- -- -- 68
2020-09-04 20:00:00 25.1 42 Nordeste 75 Este -- -- -- 67
2020-09-04 19:00:00 25.6 51 Nordeste 74 Nordeste -- -- -- 65
2020-09-04 18:00:00 26.2 49 Nordeste 76 Este -- -- -- 59
2020-09-04 17:00:00 26.6 45 Nordeste 73 Nordeste -- -- -- 60
2020-09-04 16:00:00 27.2 46 Nordeste 73 Nordeste -- -- -- 61
2020-09-04 15:00:00 27.3 49 Nordeste 72 Nordeste -- -- -- 57
2020-09-04 14:00:00 27.5 43 Nordeste 71 Nordeste -- -- -- 58
2020-09-04 13:00:00 27.4 40 Nordeste 71 Nordeste -- -- -- 56
2020-09-04 12:00:00 27.2 32 Nordeste 67 Nordeste -- -- -- 56
2020-09-04 11:00:00 26.5 35 Nordeste 54 Nordeste -- -- -- 57
2020-09-04 10:00:00 25.7 24 Nordeste 44 Nordeste -- -- -- 63
2020-09-04 09:00:00 24.4 14 Norte 29 Nordeste -- -- -- 68
2020-09-04 08:00:00 23.5 13 Norte 41 Nordeste -- -- -- 70
2020-09-04 07:00:00 23.5 19 Norte 40 Norte -- -- -- 70
2020-09-04 06:00:00 23.5 16 Nordeste 39 Nordeste -- -- -- 71
2020-09-04 05:00:00 23.6 17 Norte 35 Nordeste -- -- -- 72
2020-09-04 04:00:00 23.7 18 Nordeste 34 Nordeste -- -- -- 74
2020-09-04 03:00:00 24 14 Norte 42 Nordeste -- -- -- 74
2020-09-04 02:00:00 24.2 19 Nordeste 42 Nordeste -- -- -- 75
2020-09-04 01:00:00 24.4 20 Nordeste 39 Nordeste -- -- -- 74
2020-09-04 00:00:00 24.4 12 Nordeste 40 Nordeste -- -- -- 73
2020-09-03 23:00:00 24.6 15 Nordeste 48 Nordeste -- -- -- 72
2020-09-03 22:00:00 24.7 28 Nordeste 57 Nordeste -- -- -- 73
2020-09-03 21:00:00 24.7 31 Nordeste 57 Nordeste -- -- -- 71
2020-09-03 20:00:00 25.1 37 Nordeste 50 Nordeste -- -- -- 69
2020-09-03 19:00:00 25.7 30 Este 60 Este -- -- -- 65
2020-09-03 18:00:00 25.7 33 Este 54 Nordeste -- -- -- 67
2020-09-03 17:00:00 26.1 35 Este 62 Este -- -- -- 64
2020-09-03 16:00:00 26.2 34 Este 56 Este -- -- -- 65
2020-09-03 15:00:00 26.4 30 Este 59 Nordeste -- -- -- 66
2020-09-03 14:00:00 26.7 30 Este 65 Este -- -- -- 65
2020-09-03 13:00:00 26.5 36 Este 57 Este -- -- -- 63
2020-09-03 12:00:00 26.1 36 Este 54 Este -- -- -- 65
2020-09-03 11:00:00 26 24 Nordeste 43 Nordeste -- -- -- 66
2020-09-03 10:00:00 25.6 23 Nordeste 39 Nordeste -- -- -- 69
2020-09-03 09:00:00 24.4 14 Nordeste 29 Nordeste -- -- -- 73
2020-09-03 08:00:00 23.4 5 Norte 32 Nordeste -- -- -- 75
2020-09-03 07:00:00 23.5 13 Nordeste 33 Este -- -- -- 75
2020-09-03 06:00:00 23.6 11 Nordeste 27 Nordeste -- -- -- 75
2020-09-03 05:00:00 23.7 9 Norte 28 Este -- -- -- 75
2020-09-03 04:00:00 23.8 12 Nordeste 24 Nordeste -- -- -- 74
2020-09-03 03:00:00 23.9 16 Nordeste 25 Nordeste -- -- -- 74
2020-09-03 02:00:00 24 10 Nordeste 25 Nordeste -- -- -- 73
2020-09-03 01:00:00 24.1 13 Nordeste 25 Nordeste -- -- -- 73
2020-09-03 00:00:00 24.3 15 Nordeste 30 Nordeste -- -- -- 72
2020-09-02 23:00:00 24.4 19 Nordeste 32 Este -- -- -- 70
2020-09-02 22:00:00 24.4 18 Nordeste 26 Este -- -- -- 68
2020-09-02 21:00:00 24.5 8 Nordeste 32 Este -- -- -- 69
2020-09-02 20:00:00 24.6 25 Este 39 Este -- -- -- 72
2020-09-02 19:00:00 24.4 30 Este 38 Este -- -- -- 75
2020-09-02 18:00:00 24.7 31 Este 36 Este -- -- -- 74
2020-09-02 17:00:00 25.5 18 Este 39 Este -- -- -- 69
2020-09-02 16:00:00 25.5 32 Este 42 Sudeste -- -- -- 70
2020-09-02 15:00:00 26.1 28 Este 42 Este -- -- -- 66
2020-09-02 14:00:00 25.8 31 Este 44 Este -- -- -- 68
2020-09-02 13:00:00 26 29 Este 37 Este -- -- -- 64
2020-09-02 12:00:00 26.1 18 Este 33 Este -- -- -- 64
2020-09-02 11:00:00 25.2 25 Este 32 Este -- -- -- 67
2020-09-02 10:00:00 24.8 17 Este 22 Este -- -- -- 67
2020-09-02 09:00:00 23 0 Calma 5 Nordeste -- -- -- 69
2020-09-02 08:00:00 22 3 Norte 6 Norte -- -- -- 70
2020-09-02 07:00:00 22.1 3 Nordeste 15 Norte -- -- -- 70
2020-09-02 06:00:00 22.2 9 Norte 15 Norte -- -- -- 69
2020-09-02 05:00:00 22.2 10 Norte 19 Norte -- -- -- 72
2020-09-02 04:00:00 22.1 9 Norte 18 Norte -- -- -- 74
2020-09-02 03:00:00 22.1 12 Norte 16 Norte -- -- -- 77
2020-09-02 02:00:00 22.1 10 Norte 14 Noroeste -- -- -- 77
2020-09-02 01:00:00 22.7 8 Norte 14 Norte -- -- -- 75
2020-09-02 00:00:00 22.9 9 Norte 13 Norte -- -- -- 69
2020-09-01 23:00:00 23.3 4 Nordeste 8 Nordeste -- -- -- 67
2020-09-01 22:00:00 23.6 5 Este 13 Este -- -- -- 67
2020-09-01 21:00:00 23.8 14 Este 26 Este -- -- -- 68
2020-09-01 20:00:00 24.2 17 Este 23 Este -- -- -- 66
2020-09-01 19:00:00 24.5 5 Este 38 Este -- -- -- 64
2020-09-01 18:00:00 24.2 13 Este 36 Este -- -- -- 68
2020-09-01 17:00:00 24.3 21 Este 39 Este -- -- -- 71
2020-09-01 16:00:00 24.4 31 Este 42 Este -- -- -- 70
2020-09-01 15:00:00 24.6 29 Este 42 Este -- -- -- 69
2020-09-01 14:00:00 25 32 Este 43 Este -- -- -- 68
2020-09-01 13:00:00 25.2 29 Este 45 Este -- -- -- 66
2020-09-01 12:00:00 25 33 Este 45 Este -- -- -- 66
2020-09-01 11:00:00 25.6 28 Este 36 Este -- -- -- 63
2020-09-01 10:00:00 25.1 8 Nordeste 27 Nordeste -- -- -- 68
2020-09-01 09:00:00 23.2 8 Norte 18 Norte -- -- -- 74
2020-09-01 08:00:00 22.4 6 Norte 11 Noroeste -- -- -- 75
2020-09-01 07:00:00 22.8 9 Nordeste 28 Nordeste -- -- -- 73
2020-09-01 06:00:00 22.8 5 Nordeste 21 Nordeste -- -- -- 73
2020-09-01 05:00:00 23 12 Nordeste 35 Nordeste -- -- -- 72
2020-09-01 04:00:00 23.2 18 Nordeste 35 Nordeste -- -- -- 72
2020-09-01 03:00:00 23.4 11 Norte 25 Nordeste -- -- -- 72
2020-09-01 02:00:00 23.6 9 Nordeste 29 Norte -- -- -- 72
2020-09-01 01:00:00 23.9 10 Norte 33 Nordeste -- -- -- 72
2020-09-01 00:00:00 24 22 Nordeste 40 Nordeste -- -- -- 70
2020-08-31 23:00:00 24.1 19 Nordeste 42 Nordeste -- -- -- 68
2020-08-31 22:00:00 24.3 28 Nordeste 47 Este -- -- -- 64
2020-08-31 21:00:00 24.3 37 Nordeste 53 Nordeste -- -- -- 68
2020-08-31 20:00:00 24.7 30 Nordeste 43 Este -- -- -- 65
2020-08-31 19:00:00 25 27 Este 49 Este -- -- -- 63
2020-08-31 18:00:00 24.9 37 Este 60 Este -- -- -- 63
2020-08-31 17:00:00 25.3 36 Este 54 Este -- -- -- 61
2020-08-31 16:00:00 25.6 34 Este 54 Este -- -- -- 63
2020-08-31 15:00:00 25.4 42 Este 63 Este -- -- -- 62
2020-08-31 14:00:00 25.9 35 Este 57 Este -- -- -- 60
2020-08-31 13:00:00 26.3 29 Este 55 Este -- -- -- 60
2020-08-31 12:00:00 26.1 24 Este 49 Este -- -- -- 62
2020-08-31 11:00:00 25.9 25 Este 46 Nordeste -- -- -- 59
2020-08-31 10:00:00 25.5 17 Nordeste 35 Nordeste -- -- -- 60
2020-08-31 09:00:00 24.2 8 Nordeste 22 Nordeste -- -- -- 63
2020-08-31 08:00:00 22.6 4 Noroeste 22 Nordeste -- -- -- 67
2020-08-31 07:00:00 22.7 6 Norte 17 Nordeste -- -- -- 68
2020-08-31 06:00:00 22.6 8 Norte 13 Noroeste -- -- -- 69
2020-08-31 05:00:00 22.8 8 Noroeste 22 Norte -- -- -- 69
2020-08-31 04:00:00 23 5 Noroeste 16 Nordeste -- -- -- 69
2020-08-31 03:00:00 23.3 4 Norte 15 Nordeste -- -- -- 70
2020-08-31 02:00:00 23.5 6 Norte 18 Noroeste -- -- -- 71
2020-08-31 01:00:00 23.8 6 Norte 32 Nordeste -- -- -- 71
2020-08-31 00:00:00 23.9 8 Nordeste 34 Este -- -- -- 71
2020-08-30 23:00:00 24.2 24 Nordeste 40 Nordeste -- -- -- 71
2020-08-30 22:00:00 24.2 26 Nordeste 46 Este -- -- -- 72
2020-08-30 21:00:00 24.3 30 Nordeste 54 Nordeste -- -- -- 72
2020-08-30 20:00:00 24.5 32 Nordeste 54 Nordeste -- -- -- 71
2020-08-30 19:00:00 24.8 32 Nordeste 55 Este -- -- -- 70
2020-08-30 18:00:00 25.1 32 Nordeste 53 Nordeste -- -- -- 67
2020-08-30 17:00:00 25.6 31 Este 53 Este -- -- -- 64
2020-08-30 16:00:00 26.1 33 Este 53 Este -- -- -- 62
2020-08-30 15:00:00 25.8 33 Este 57 Este -- -- -- 62
2020-08-30 14:00:00 26.5 33 Este 53 Este -- -- -- 59
2020-08-30 13:00:00 26.5 26 Este 47 Este -- -- -- 59
2020-08-30 12:00:00 25.7 21 Este 45 Este -- -- -- 60
2020-08-30 11:00:00 26.3 25 Este 41 Sudeste -- -- -- 55
2020-08-30 10:00:00 25.4 15 Nordeste 28 Este -- -- -- 63
2020-08-30 09:00:00 24.3 11 Nordeste 19 Nordeste -- -- -- 73
2020-08-30 08:00:00 23.4 10 Nordeste 25 Este -- -- -- 78
2020-08-30 07:00:00 23.4 17 Nordeste 27 Nordeste -- -- -- 80
2020-08-30 06:00:00 23.6 15 Nordeste 24 Nordeste -- -- -- 81
2020-08-30 05:00:00 23.8 16 Nordeste 27 Nordeste -- -- -- 81
2020-08-30 04:00:00 24 16 Nordeste 32 Este -- -- -- 81
2020-08-30 03:00:00 24.1 19 Este 31 Este -- -- -- 79
2020-08-30 02:00:00 24.6 23 Este 42 Nordeste -- -- -- 74
2020-08-30 01:00:00 24.9 26 Nordeste 39 Nordeste -- -- -- 68
2020-08-30 00:00:00 22.7 8 Este 12 Este -- -- -- 64
2020-08-29 23:00:00 22.4 7 Noroeste 25 Noroeste -- -- -- 57
2020-08-29 22:00:00 23 17 Oeste 48 Oeste -- -- -- 63
2020-08-29 21:00:00 22.6 28 Oeste 53 Noroeste -- -- -- 67
2020-08-29 20:00:00 23 25 Oeste 49 Oeste -- -- -- 67
2020-08-29 19:00:00 23.7 21 Oeste 51 Oeste -- -- -- 69
2020-08-29 18:00:00 23.6 24 Oeste 44 Noroeste -- -- -- 67
2020-08-29 17:00:00 24.1 40 Oeste 67 Noroeste -- -- -- 63
2020-08-29 16:00:00 25.1 42 Oeste 76 Oeste -- -- -- 60
2020-08-29 15:00:00 25 55 Oeste 75 Oeste -- -- -- 59
2020-08-29 14:00:00 25.7 41 Oeste 59 Oeste -- -- -- 56
2020-08-29 13:00:00 25.5 42 Oeste 56 Oeste -- -- -- 58
2020-08-29 12:00:00 24.8 26 Oeste 49 Sudoeste -- -- -- 62
2020-08-29 11:00:00 24.6 26 Oeste 46 Sudoeste -- -- -- 65
2020-08-29 10:00:00 24.2 23 Oeste 42 Sudoeste -- -- -- 70
2020-08-29 09:00:00 24.1 26 Oeste 58 Oeste -- -- -- 73
2020-08-29 08:00:00 23.4 34 Oeste 52 Oeste -- -- -- 77
2020-08-29 07:00:00 23.7 35 Oeste 49 Oeste -- -- -- 79
2020-08-29 06:00:00 24.2 27 Oeste 41 Noroeste -- -- -- 80
2020-08-29 05:00:00 24.7 24 Oeste 41 Sudoeste -- -- -- 80
2020-08-29 04:00:00 25.1 15 Oeste 28 Oeste -- -- -- 79
2020-08-29 03:00:00 25.3 14 Oeste 27 Oeste -- -- -- 79
2020-08-29 02:00:00 25.5 18 Oeste 30 Oeste -- -- -- 79
2020-08-29 01:00:00 25.4 15 Oeste 25 Noroeste -- -- -- 77
2020-08-29 00:00:00 25.4 14 Oeste 22 Oeste -- -- -- 78
2020-08-28 23:00:00 25.6 14 Oeste 23 Noroeste -- -- -- 77
2020-08-28 22:00:00 25.6 16 Oeste 39 Oeste -- -- -- 77
2020-08-28 21:00:00 25.8 27 Oeste 41 Noroeste -- -- -- 76
2020-08-28 20:00:00 26.4 23 Oeste 38 Noroeste -- -- -- 73
2020-08-28 19:00:00 27 15 Oeste 32 Oeste -- -- -- 72
2020-08-28 18:00:00 27.3 23 Oeste 39 Oeste -- -- -- 71
2020-08-28 17:00:00 27.8 22 Oeste 45 Sudoeste -- -- -- 69
2020-08-28 16:00:00 28.5 17 Oeste 32 Oeste -- -- -- 70
2020-08-28 15:00:00 28.9 15 Sudoeste 30 Oeste -- -- -- 69
2020-08-28 14:00:00 28.7 7 Sudoeste 23 Sudoeste -- -- -- 72
2020-08-28 13:00:00 28.6 14 Oeste 30 Oeste -- -- -- 73
2020-08-28 12:00:00 28 13 Oeste 23 Oeste -- -- -- 74
2020-08-28 11:00:00 27.7 11 Sudoeste 28 Oeste -- -- -- 76
2020-08-28 10:00:00 26.3 22 Oeste 33 Oeste -- -- -- 80
2020-08-28 09:00:00 25.2 21 Oeste 30 Oeste -- -- -- 84
2020-08-28 08:00:00 24.8 15 Oeste 31 Oeste -- -- -- 85
2020-08-28 07:00:00 25 18 Oeste 26 Oeste -- -- -- 85
2020-08-28 06:00:00 25.1 15 Oeste 25 Sudoeste -- -- -- 85
2020-08-28 05:00:00 25.3 17 Oeste 25 Oeste -- -- -- 85
2020-08-28 04:00:00 25.3 11 Oeste 16 Oeste -- -- -- 84
2020-08-28 03:00:00 24.9 5 Noroeste 14 Noroeste -- -- -- 83
2020-08-28 02:00:00 25.8 9 Oeste 19 Noroeste -- -- -- 83
2020-08-28 01:00:00 25.9 10 Oeste 18 Noroeste -- -- -- 82
2020-08-28 00:00:00 26.1 12 Oeste 16 Sudoeste -- -- -- 82